createdAt,value
2024-03-12T00:00:01.625Z,2.92
2024-03-12T00:02:48.861Z,5.07
2024-03-12T00:05:35.160Z,5.47
2024-03-12T00:08:21.237Z,6.47
2024-03-12T00:11:09.018Z,3.75
2024-03-12T00:13:55.299Z,6.05
2024-03-12T00:16:41.973Z,3.63
2024-03-12T00:19:28.550Z,7.05
2024-03-12T00:22:14.620Z,7.25
2024-03-12T00:25:01.090Z,4.97
2024-03-12T00:27:48.855Z,3.83
2024-03-12T00:30:35.231Z,4.68
2024-03-12T00:33:22.704Z,5.88
2024-03-12T00:36:09.470Z,6.15
2024-03-12T00:38:55.797Z,5.90
2024-03-12T00:41:41.820Z,5.15
2024-03-12T00:44:31.425Z,5.95
2024-03-12T00:47:18.252Z,6.60
2024-03-12T00:50:05.648Z,6.43
2024-03-12T00:52:54.348Z,7.18
2024-03-12T00:55:41.836Z,6.40
2024-03-12T00:58:29.579Z,5.80
2024-03-12T01:01:17.244Z,6.70
2024-03-12T01:04:04.526Z,6.35
2024-03-12T01:06:52.642Z,5.50
2024-03-12T01:09:41.125Z,6.95
2024-03-12T01:12:27.791Z,5.47
2024-03-12T01:15:13.777Z,5.70
2024-03-12T01:18:01.171Z,5.85
2024-03-12T01:20:47.596Z,6.43
2024-03-12T01:23:33.529Z,4.85
2024-03-12T01:26:19.774Z,6.82
2024-03-12T01:29:06.148Z,6.45
2024-03-12T01:31:53.528Z,7.22
2024-03-12T01:34:41.190Z,7.13
2024-03-12T01:37:27.448Z,5.65
2024-03-12T01:40:26.560Z,7.43
2024-03-12T01:43:13.694Z,7.53
2024-03-12T01:46:00.737Z,7.28
2024-03-12T01:48:46.917Z,7.80
2024-03-12T01:51:35.165Z,5.82
2024-03-12T01:54:21.308Z,5.25
2024-03-12T01:57:07.746Z,5.65
2024-03-12T01:59:53.941Z,7.25
2024-03-12T02:02:40.077Z,6.28
2024-03-12T02:05:27.792Z,8.68
2024-03-12T02:08:16.323Z,8.38
2024-03-12T02:11:02.684Z,7.28
2024-03-12T02:13:52.262Z,5.43
2024-03-12T02:16:39.911Z,6.28
2024-03-12T02:19:25.978Z,6.03
2024-03-12T02:22:12.165Z,7.13
2024-03-12T02:25:00.646Z,5.90
2024-03-12T02:27:46.764Z,6.85
2024-03-12T02:30:32.917Z,5.35
2024-03-12T02:33:21.424Z,6.25
2024-03-12T02:36:08.534Z,6.22
2024-03-12T02:38:54.610Z,7.18
2024-03-12T02:41:42.214Z,6.97
2024-03-12T02:44:28.757Z,6.82
2024-03-12T02:47:15.054Z,5.53
2024-03-12T02:50:01.386Z,5.50
2024-03-12T02:52:47.829Z,5.57
2024-03-12T02:55:33.647Z,7.15
2024-03-12T02:58:26.315Z,6.55
2024-03-12T03:01:12.498Z,6.68
2024-03-12T03:03:59.785Z,6.90
2024-03-12T03:06:45.744Z,6.45
2024-03-12T03:09:32.202Z,6.13
2024-03-12T03:12:18.341Z,7.10
2024-03-12T03:15:06.447Z,6.90
2024-03-12T03:17:52.662Z,6.38
2024-03-12T03:20:40.093Z,5.93
2024-03-12T03:23:26.365Z,6.88
2024-03-12T03:26:13.010Z,5.97
2024-03-12T03:28:58.983Z,6.40
2024-03-12T03:31:49.595Z,10.23
2024-03-12T03:34:35.829Z,7.32
2024-03-12T03:37:22.315Z,6.50
2024-03-12T03:40:12.294Z,6.55
2024-03-12T03:42:59.422Z,6.78
2024-03-12T03:45:45.576Z,9.82
2024-03-12T03:48:33.204Z,6.45
2024-03-12T03:51:19.504Z,6.70
2024-03-12T03:54:05.678Z,6.10
2024-03-12T03:56:51.892Z,7.90
2024-03-12T03:59:37.972Z,6.78
2024-03-12T04:02:24.390Z,6.22
2024-03-12T04:05:12.492Z,6.43
2024-03-12T04:07:59.754Z,7.50
2024-03-12T04:10:47.732Z,9.38
2024-03-12T04:13:34.315Z,5.68
2024-03-12T04:16:20.814Z,7.13
2024-03-12T04:19:07.184Z,6.38
2024-03-12T04:21:54.719Z,5.55
2024-03-12T04:24:40.572Z,7.35
2024-03-12T04:27:28.202Z,6.03
2024-03-12T04:30:15.084Z,7.65
2024-03-12T04:33:02.832Z,8.13
2024-03-12T04:35:48.957Z,7.72
2024-03-12T04:38:36.715Z,7.20
2024-03-12T04:41:23.038Z,6.30
2024-03-12T04:44:09.201Z,6.65
2024-03-12T04:46:55.814Z,7.05
2024-03-12T04:49:42.013Z,6.55
2024-03-12T04:52:28.026Z,8.75
2024-03-12T04:55:15.685Z,5.78
2024-03-12T04:58:02.124Z,6.13
2024-03-12T05:00:48.564Z,6.38
2024-03-12T05:03:35.676Z,6.00
2024-03-12T05:06:22.123Z,6.60
2024-03-12T05:09:08.225Z,6.68
2024-03-12T05:11:55.557Z,7.38
2024-03-12T05:14:41.636Z,4.95
2024-03-12T05:17:27.674Z,7.60
2024-03-12T05:20:15.682Z,6.03
2024-03-12T05:23:03.548Z,10.55
2024-03-12T05:25:52.418Z,8.77
2024-03-12T05:28:39.781Z,7.07
2024-03-12T05:31:33.566Z,9.60
2024-03-12T05:34:28.776Z,9.95
2024-03-12T05:37:29.618Z,5.47
2024-03-12T05:40:18.494Z,8.35
2024-03-12T05:43:22.568Z,7.97
2024-03-12T05:46:27.892Z,6.95
2024-03-12T05:49:15.343Z,6.75
2024-03-12T05:52:01.558Z,6.57
2024-03-12T05:54:47.636Z,6.60
2024-03-12T05:57:34.808Z,6.50
2024-03-12T06:00:21.863Z,6.63
2024-03-12T06:03:10.596Z,7.43
2024-03-12T06:05:57.355Z,6.30
2024-03-12T06:08:46.062Z,6.38
2024-03-12T06:11:32.599Z,5.78
2024-03-12T06:14:20.035Z,7.88
2024-03-12T06:17:07.121Z,8.07
2024-03-12T06:19:54.913Z,7.65
2024-03-12T06:22:41.408Z,5.18
2024-03-12T06:25:27.694Z,5.72
2024-03-12T06:28:14.393Z,7.93
2024-03-12T06:31:01.513Z,9.98
2024-03-12T06:33:47.526Z,7.38
2024-03-12T06:36:35.152Z,9.40
2024-03-12T06:39:21.644Z,8.02
2024-03-12T06:42:08.716Z,7.05
2024-03-12T06:44:55.968Z,9.65
2024-03-12T06:47:42.958Z,7.68
2024-03-12T06:50:29.243Z,5.72
2024-03-12T06:53:16.978Z,6.78
2024-03-12T06:56:05.944Z,6.55
2024-03-12T06:58:52.071Z,8.63
2024-03-12T07:01:42.032Z,9.68
2024-03-12T07:04:35.975Z,9.32
2024-03-12T07:07:23.071Z,8.98
2024-03-12T07:10:12.550Z,7.95
2024-03-12T07:13:03.466Z,9.05
2024-03-12T07:15:50.653Z,8.48
2024-03-12T07:18:36.832Z,8.48
2024-03-12T07:21:23.361Z,10.75
2024-03-12T07:24:12.680Z,10.27
2024-03-12T07:27:00.484Z,9.32
2024-03-12T07:29:46.925Z,9.20
2024-03-12T07:32:33.325Z,11.02
2024-03-12T07:35:20.027Z,9.60
2024-03-12T07:38:06.428Z,11.68
2024-03-12T07:40:53.266Z,12.38
2024-03-12T07:43:41.282Z,11.40
2024-03-12T07:46:27.421Z,11.77
2024-03-12T07:49:14.039Z,12.32
2024-03-12T07:52:01.854Z,11.35
2024-03-12T07:54:48.707Z,15.38
2024-03-12T07:57:36.444Z,13.13
2024-03-12T08:00:24.261Z,12.55
2024-03-12T08:03:10.666Z,11.90
2024-03-12T08:05:56.939Z,15.48
2024-03-12T08:08:43.255Z,12.10
2024-03-12T08:11:31.341Z,18.42
2024-03-12T08:14:18.716Z,19.45
2024-03-12T08:17:06.528Z,20.95
2024-03-12T08:19:52.714Z,22.50
2024-03-12T08:22:39.536Z,20.17
2024-03-12T08:25:25.993Z,22.42
2024-03-12T08:28:12.193Z,17.40
2024-03-12T08:31:02.605Z,20.95
2024-03-12T08:33:56.254Z,19.38
2024-03-12T08:36:42.921Z,18.52
2024-03-12T08:39:29.931Z,20.67
2024-03-12T08:42:16.360Z,20.88
2024-03-12T08:45:02.378Z,21.50
2024-03-12T08:47:48.653Z,16.52
2024-03-12T08:50:36.312Z,23.42
2024-03-12T08:53:22.641Z,20.73
2024-03-12T08:56:08.704Z,21.70
2024-03-12T08:58:54.915Z,22.77
2024-03-12T09:01:41.599Z,21.75
2024-03-12T09:04:30.210Z,15.85
2024-03-12T09:07:18.710Z,15.93
2024-03-12T09:10:06.900Z,20.88
2024-03-12T09:12:53.376Z,16.77
2024-03-12T09:15:42.232Z,19.63
2024-03-12T09:18:28.446Z,15.48
2024-03-12T09:21:15.314Z,17.88
2024-03-12T09:24:03.054Z,20.75
2024-03-12T09:26:49.636Z,21.77
2024-03-12T09:29:37.829Z,20.35
2024-03-12T09:32:25.397Z,17.65
2024-03-12T09:35:12.547Z,19.55
2024-03-12T09:37:58.792Z,16.83
2024-03-12T09:40:51.900Z,19.25
2024-03-12T09:43:40.244Z,18.58
2024-03-12T09:46:26.700Z,17.45
2024-03-12T09:49:14.799Z,19.13
2024-03-12T09:52:01.255Z,18.45
2024-03-12T09:54:50.351Z,20.58
2024-03-12T09:57:38.669Z,16.02
2024-03-12T10:00:26.118Z,18.88
2024-03-12T10:03:12.589Z,14.27
2024-03-12T10:05:59.058Z,18.80
2024-03-12T10:08:46.191Z,18.35
2024-03-12T10:11:34.259Z,19.85
2024-03-12T10:14:23.330Z,20.05
2024-03-12T10:17:15.149Z,17.15
2024-03-12T10:20:08.762Z,16.38
2024-03-12T10:23:10.439Z,15.88
2024-03-12T10:26:08.719Z,18.73
2024-03-12T10:28:56.483Z,17.60
2024-03-12T10:31:45.517Z,17.33
2024-03-12T10:34:34.839Z,18.45
2024-03-12T10:37:29.606Z,19.70
2024-03-12T10:40:16.976Z,22.30
2024-03-12T10:43:04.525Z,19.20
2024-03-12T10:45:51.128Z,21.17
2024-03-12T10:48:41.970Z,19.05
2024-03-12T10:51:29.150Z,18.15
2024-03-12T10:54:17.619Z,18.38
2024-03-12T10:57:04.958Z,19.98
2024-03-12T10:59:52.714Z,20.50
2024-03-12T11:02:40.746Z,21.70
2024-03-12T11:05:33.848Z,18.60
2024-03-12T11:08:20.643Z,16.38
2024-03-12T11:11:10.234Z,21.20
2024-03-12T11:13:58.104Z,23.08
2024-03-12T11:16:45.291Z,16.30
2024-03-12T11:19:35.082Z,20.48
2024-03-12T11:22:24.651Z,20.27
2024-03-12T11:25:10.907Z,12.93
2024-03-12T11:28:23.502Z,19.38
2024-03-12T11:31:09.788Z,18.08
2024-03-12T11:33:56.707Z,23.55
2024-03-12T11:36:47.333Z,19.80
2024-03-12T11:39:35.059Z,24.65
2024-03-12T11:42:21.305Z,17.50
2024-03-12T11:45:11.272Z,23.38
2024-03-12T11:47:57.540Z,20.48
2024-03-12T11:50:44.452Z,26.10
2024-03-12T11:53:31.786Z,23.33
2024-03-12T11:56:20.759Z,22.33
2024-03-12T11:59:11.998Z,20.58
2024-03-12T12:02:04.003Z,20.30
2024-03-12T12:04:52.966Z,21.88
2024-03-12T12:07:40.527Z,19.52
2024-03-12T12:10:26.675Z,16.65
2024-03-12T12:13:18.370Z,19.63
2024-03-12T12:16:06.552Z,21.52
2024-03-12T12:18:52.773Z,22.75
2024-03-12T12:21:39.613Z,25.13
2024-03-12T12:24:27.049Z,23.45
2024-03-12T12:27:13.380Z,22.70
2024-03-12T12:30:04.167Z,21.85
2024-03-12T12:32:53.431Z,21.65
2024-03-12T12:35:42.343Z,17.85
2024-03-12T12:38:29.437Z,20.38
2024-03-12T12:41:16.813Z,19.20
2024-03-12T12:44:11.924Z,23.95
2024-03-12T12:46:59.776Z,18.45
2024-03-12T12:49:53.849Z,18.33
2024-03-12T12:52:41.441Z,24.95
2024-03-12T12:55:27.840Z,16.48
2024-03-12T12:58:14.336Z,30.15
2024-03-12T13:01:02.158Z,18.05
2024-03-12T13:03:54.423Z,18.38
2024-03-12T13:06:42.443Z,19.63
2024-03-12T13:09:29.940Z,23.75
2024-03-12T13:12:16.987Z,15.88
2024-03-12T13:15:03.274Z,16.92
2024-03-12T13:17:49.405Z,21.25
2024-03-12T13:20:37.115Z,18.50
2024-03-12T13:23:23.607Z,15.20
2024-03-12T13:26:13.829Z,16.77
2024-03-12T13:29:00.201Z,15.50
2024-03-12T13:31:46.718Z,15.45
2024-03-12T13:34:32.910Z,13.85
2024-03-12T13:37:20.825Z,17.00
2024-03-12T13:40:08.068Z,14.93
2024-03-12T13:42:54.105Z,11.10
2024-03-12T13:45:40.411Z,13.00
2024-03-12T13:48:28.151Z,9.98
2024-03-12T13:51:14.541Z,10.90
2024-03-12T13:54:03.106Z,8.65
2024-03-12T13:56:49.569Z,12.52
2024-03-12T13:59:36.417Z,11.05
2024-03-12T14:02:24.152Z,14.10
2024-03-12T14:05:10.578Z,9.35
2024-03-12T14:07:56.957Z,9.65
2024-03-12T14:10:47.594Z,10.60
2024-03-12T14:13:36.088Z,10.18
2024-03-12T14:16:23.608Z,10.68
2024-03-12T14:19:10.259Z,11.00
2024-03-12T14:21:56.264Z,11.23
2024-03-12T14:24:42.440Z,12.15
2024-03-12T14:27:30.916Z,13.20
2024-03-12T14:30:17.266Z,9.30
2024-03-12T14:33:03.532Z,8.35
2024-03-12T14:35:50.202Z,11.05
2024-03-12T14:38:36.516Z,9.20
2024-03-12T14:41:23.470Z,10.48
2024-03-12T14:44:11.211Z,9.15
2024-03-12T14:46:58.041Z,9.82
2024-03-12T14:49:44.177Z,11.15
2024-03-12T14:52:30.641Z,10.43
2024-03-12T14:55:16.983Z,8.60
2024-03-12T14:58:03.349Z,9.02
2024-03-12T15:00:51.130Z,10.65
2024-03-12T15:03:37.457Z,10.98
2024-03-12T15:06:23.647Z,8.38
2024-03-12T15:09:13.704Z,12.52
2024-03-12T15:12:00.680Z,13.05
2024-03-12T15:14:47.928Z,11.05
2024-03-12T15:17:35.728Z,15.25
2024-03-12T15:20:22.053Z,12.15
2024-03-12T15:23:08.122Z,10.20
2024-03-12T15:25:54.755Z,9.15
2024-03-12T15:28:40.595Z,12.35
2024-03-12T15:31:29.710Z,10.30
2024-03-12T15:34:17.464Z,10.63
2024-03-12T15:37:03.538Z,11.10
2024-03-12T15:39:49.553Z,11.80
2024-03-12T15:42:35.853Z,11.15
2024-03-12T15:45:22.637Z,10.55
2024-03-12T15:48:09.564Z,11.27
2024-03-12T15:50:59.397Z,11.57
2024-03-12T15:53:45.573Z,8.35
2024-03-12T15:56:33.166Z,9.68
2024-03-12T15:59:19.158Z,12.38
2024-03-12T16:02:05.885Z,10.05
2024-03-12T16:04:51.705Z,8.43
2024-03-12T16:07:40.394Z,9.80
2024-03-12T16:10:27.214Z,13.18
2024-03-12T16:13:13.193Z,13.13
2024-03-12T16:15:59.341Z,8.95
2024-03-12T16:18:45.971Z,9.10
2024-03-12T16:21:35.050Z,10.00
2024-03-12T16:24:22.181Z,10.95
2024-03-12T16:27:08.780Z,8.85
2024-03-12T16:29:55.247Z,9.50
2024-03-12T16:32:41.817Z,9.43
2024-03-12T16:35:28.709Z,8.90
2024-03-12T16:38:15.211Z,9.98
2024-03-12T16:41:02.742Z,12.35
2024-03-12T16:43:49.967Z,10.57
2024-03-12T16:46:36.335Z,12.20
2024-03-12T16:49:22.778Z,11.52
2024-03-12T16:52:09.372Z,12.45
2024-03-12T16:54:56.767Z,13.10
2024-03-12T16:57:44.747Z,10.82
2024-03-12T17:00:31.352Z,12.02
2024-03-12T17:03:18.139Z,9.02
2024-03-12T17:06:05.576Z,11.07
2024-03-12T17:08:54.386Z,8.73
2024-03-12T17:11:40.867Z,12.05
2024-03-12T17:14:34.463Z,9.93
2024-03-12T17:17:25.306Z,10.52
2024-03-12T17:20:12.336Z,15.32
2024-03-12T17:22:59.508Z,9.35
2024-03-12T17:25:46.410Z,9.30
2024-03-12T17:28:34.229Z,10.93
2024-03-12T17:31:22.575Z,11.93
2024-03-12T17:34:09.976Z,12.63
2024-03-12T17:36:58.917Z,13.07
2024-03-12T17:39:48.385Z,14.00
2024-03-12T17:42:37.348Z,13.35
2024-03-12T17:45:24.850Z,13.95
2024-03-12T17:48:14.641Z,12.80
2024-03-12T17:51:01.962Z,13.27
2024-03-12T17:53:50.176Z,16.27
2024-03-12T17:56:40.930Z,14.40
2024-03-12T17:59:27.807Z,14.82
2024-03-12T18:02:14.593Z,14.80
2024-03-12T18:05:05.196Z,14.05
2024-03-12T18:07:53.398Z,17.30
2024-03-12T18:10:40.904Z,14.20
2024-03-12T18:13:27.807Z,13.23
2024-03-12T18:16:14.079Z,20.48
2024-03-12T18:19:00.129Z,20.70
2024-03-12T18:21:48.134Z,16.25
2024-03-12T18:24:34.677Z,14.80
2024-03-12T18:27:22.896Z,20.25
2024-03-12T18:30:10.944Z,15.50
2024-03-12T18:32:57.306Z,14.52
2024-03-12T18:35:44.344Z,17.67
2024-03-12T18:38:31.883Z,18.00
2024-03-12T18:41:18.400Z,18.85
2024-03-12T18:44:04.813Z,19.70
2024-03-12T18:46:51.154Z,18.55
2024-03-12T18:49:37.808Z,23.45
2024-03-12T18:52:24.618Z,27.05
2024-03-12T18:55:13.488Z,23.15
2024-03-12T18:58:00.871Z,22.90
2024-03-12T19:00:47.827Z,20.00
2024-03-12T19:03:48.715Z,19.73
2024-03-12T19:06:36.050Z,23.73
2024-03-12T19:09:24.301Z,22.88
2024-03-12T19:12:12.836Z,19.80
2024-03-12T19:14:59.423Z,23.67
2024-03-12T19:17:50.057Z,23.55
2024-03-12T19:20:36.640Z,20.48
2024-03-12T19:23:24.907Z,22.30
2024-03-12T19:26:14.075Z,18.10
2024-03-12T19:29:02.079Z,21.27
2024-03-12T19:31:48.953Z,17.35
2024-03-12T19:34:37.446Z,23.58
2024-03-12T19:37:28.343Z,23.98
2024-03-12T19:40:17.670Z,22.63
2024-03-12T19:43:04.839Z,24.77
2024-03-12T19:45:53.330Z,25.30
2024-03-12T19:48:40.277Z,26.23
2024-03-12T19:51:26.893Z,21.77
2024-03-12T19:54:17.054Z,26.98
2024-03-12T19:57:04.381Z,22.77
2024-03-12T19:59:51.002Z,21.13
2024-03-12T20:02:38.511Z,24.33
2024-03-12T20:05:28.293Z,24.90
2024-03-12T20:08:14.389Z,26.90
2024-03-12T20:11:01.285Z,24.92
2024-03-12T20:13:47.428Z,26.70
2024-03-12T20:16:33.864Z,24.88
2024-03-12T20:19:21.250Z,27.83
2024-03-12T20:22:11.882Z,28.52
2024-03-12T20:24:58.612Z,27.60
2024-03-12T20:27:45.142Z,28.15
2024-03-12T20:30:33.580Z,30.85
2024-03-12T20:33:20.457Z,27.13
2024-03-12T20:36:08.699Z,30.90
2024-03-12T20:38:54.814Z,29.05
2024-03-12T20:41:43.106Z,26.65
2024-03-12T20:44:29.453Z,29.80
2024-03-12T20:47:19.018Z,29.25
2024-03-12T20:50:08.297Z,28.58
2024-03-12T20:52:55.805Z,34.25
2024-03-12T20:55:42.781Z,27.70
2024-03-12T20:58:29.366Z,55.33
2024-03-12T21:01:15.860Z,48.20
2024-03-12T21:04:04.912Z,26.30
2024-03-12T21:06:52.188Z,31.27
2024-03-12T21:09:40.419Z,36.97
2024-03-12T21:12:26.644Z,28.90
2024-03-12T21:15:16.475Z,26.95
2024-03-12T21:18:04.160Z,30.42
2024-03-12T21:20:50.583Z,31.73
2024-03-12T21:23:37.496Z,28.85
2024-03-12T21:26:25.859Z,28.88
2024-03-12T21:29:12.828Z,33.30
2024-03-12T21:31:59.060Z,26.77
2024-03-12T21:34:45.023Z,28.70
2024-03-12T21:37:31.186Z,29.23
2024-03-12T21:40:17.734Z,30.45
2024-03-12T21:43:09.820Z,31.02
2024-03-12T21:45:56.252Z,28.55
2024-03-12T21:48:43.729Z,28.73
2024-03-12T21:51:30.894Z,32.97
2024-03-12T21:54:17.102Z,29.83
2024-03-12T21:57:05.416Z,31.85
2024-03-12T21:59:53.753Z,28.00
2024-03-12T22:02:40.152Z,30.00
2024-03-12T22:05:29.467Z,29.08
2024-03-12T22:08:15.813Z,35.88
2024-03-12T22:11:02.179Z,33.97
2024-03-12T22:13:48.644Z,24.80
2024-03-12T22:16:38.015Z,23.50
2024-03-12T22:19:25.780Z,27.45
2024-03-12T22:22:12.135Z,28.70
2024-03-12T22:24:59.194Z,26.92
2024-03-12T22:27:48.775Z,26.60
2024-03-12T22:30:35.149Z,25.67
2024-03-12T22:33:23.130Z,26.55
2024-03-12T22:36:12.061Z,29.63
2024-03-12T22:38:58.504Z,31.20
2024-03-12T22:41:49.045Z,24.20
2024-03-12T22:44:36.751Z,27.33
2024-03-12T22:47:23.681Z,31.45
2024-03-12T22:50:12.177Z,32.03
2024-03-12T22:53:00.284Z,25.98
2024-03-12T22:55:46.961Z,26.00
2024-03-12T22:58:33.492Z,26.75
2024-03-12T23:01:20.547Z,27.25
2024-03-12T23:04:06.930Z,21.95
2024-03-12T23:06:55.442Z,26.90
2024-03-12T23:09:42.895Z,24.92
2024-03-12T23:12:29.076Z,26.20
2024-03-12T23:15:16.030Z,25.20
2024-03-12T23:18:04.227Z,22.38
2024-03-12T23:20:50.700Z,26.23
2024-03-12T23:23:38.920Z,22.35
2024-03-12T23:26:25.273Z,23.15
2024-03-12T23:29:11.847Z,28.27
2024-03-12T23:31:57.869Z,25.70
2024-03-12T23:34:43.860Z,21.50
2024-03-12T23:37:31.486Z,23.48
2024-03-12T23:40:18.990Z,21.42
2024-03-12T23:43:05.620Z,20.80
2024-03-12T23:45:51.824Z,23.45
2024-03-12T23:48:38.381Z,22.42
2024-03-12T23:51:24.413Z,24.50
2024-03-12T23:54:10.570Z,22.35
2024-03-12T23:56:57.938Z,21.23
2024-03-12T23:59:45.715Z,24.02
